createdAt,value
2018-08-23T00:01:35.511Z,96855.97
2018-08-23T00:04:08.556Z,96859.53
2018-08-23T00:06:41.379Z,96858.77
2018-08-23T00:09:11.377Z,96858.77
2018-08-23T00:11:45.544Z,96866.78
2018-08-23T00:14:16.363Z,96863.33
2018-08-23T00:16:47.520Z,96855.91
2018-08-23T00:19:17.931Z,96859.25
2018-08-23T00:21:49.163Z,96857.47
2018-08-23T00:24:21.017Z,96859.23
2018-08-23T00:26:56.869Z,96860.53
2018-08-23T00:29:29.003Z,96854.99
2018-08-23T00:32:03.662Z,96858.32
2018-08-23T00:34:35.959Z,96855.58
2018-08-23T00:37:06.610Z,96852.92
2018-08-23T00:39:37.196Z,96856.80
2018-08-23T00:42:11.763Z,96858.95
2018-08-23T00:44:56.828Z,96856.48
2018-08-23T00:47:30.894Z,96848.91
2018-08-23T00:50:00.983Z,96848.24
2018-08-23T00:52:48.253Z,96844.06
2018-08-23T00:55:25.100Z,96844.97
2018-08-23T00:57:55.173Z,96844.06
2018-08-23T01:00:26.226Z,96845.87
2018-08-23T01:03:02.156Z,96845.08
2018-08-23T01:05:39.158Z,96849.38
2018-08-23T01:08:10.110Z,96847.16
2018-08-23T01:10:41.247Z,96848.52
2018-08-23T01:13:11.337Z,96843.09
2018-08-23T01:15:43.603Z,96839.78
2018-08-23T01:18:18.072Z,96846.72
2018-08-23T01:20:49.409Z,96837.80
2018-08-23T01:23:19.452Z,96851.87
2018-08-23T01:25:50.131Z,96842.15
2018-08-23T01:28:20.222Z,96843.22
2018-08-23T01:30:50.608Z,96842.00
2018-08-23T01:33:21.969Z,96845.48
2018-08-23T01:35:53.029Z,96835.18
2018-08-23T01:38:23.058Z,96839.42
2018-08-23T01:40:59.172Z,96838.61
2018-08-23T01:43:29.295Z,96835.98
2018-08-23T01:45:59.304Z,96834.27
2018-08-23T01:48:29.356Z,96834.38
2018-08-23T01:50:59.430Z,96833.62
2018-08-23T01:53:33.464Z,96831.91
2018-08-23T01:56:03.435Z,96828.52
2018-08-23T01:58:35.427Z,96826.81
2018-08-23T02:01:14.385Z,96830.20
2018-08-23T02:03:44.664Z,96825.11
2018-08-23T02:06:14.951Z,96822.12
2018-08-23T02:08:46.603Z,96823.02
2018-08-23T02:11:16.672Z,96819.26
2018-08-23T02:13:49.840Z,96826.18
2018-08-23T02:16:19.976Z,96836.97
2018-08-23T02:18:50.278Z,96822.91
2018-08-23T02:21:20.396Z,96826.34
2018-08-23T02:23:52.179Z,96822.97
2018-08-23T02:26:22.116Z,96817.11
2018-08-23T02:28:53.243Z,96820.27
2018-08-23T02:31:23.324Z,96819.56
2018-08-23T02:33:53.349Z,96822.57
2018-08-23T02:36:24.729Z,96823.42
2018-08-23T02:39:01.686Z,96822.67
2018-08-23T02:41:32.202Z,96821.43
2018-08-23T02:44:02.307Z,96814.99
2018-08-23T02:46:33.888Z,96817.56
2018-08-23T02:49:03.927Z,96816.72
2018-08-23T02:51:52.171Z,96819.34
2018-08-23T02:54:22.290Z,96821.91
2018-08-23T02:56:59.403Z,96816.72
2018-08-23T02:59:30.367Z,96811.52
2018-08-23T03:02:00.362Z,96813.19
2018-08-23T03:04:30.389Z,96819.56
2018-08-23T03:07:06.636Z,96814.31
2018-08-23T03:09:38.635Z,96811.26
2018-08-23T03:12:10.219Z,96809.97
2018-08-23T03:14:40.966Z,96808.78
2018-08-23T03:17:27.268Z,96807.56
2018-08-23T03:20:01.995Z,96815.23
2018-08-23T03:22:33.219Z,96815.70
2018-08-23T03:25:04.927Z,96810.45
2018-08-23T03:27:34.993Z,96812.93
2018-08-23T03:30:06.339Z,96815.12
2018-08-23T03:32:36.340Z,96810.36
2018-08-23T03:35:06.459Z,96812.55
2018-08-23T03:37:36.424Z,96807.83
2018-08-23T03:40:07.082Z,96810.36
2018-08-23T03:42:36.980Z,96808.69
2018-08-23T03:45:07.968Z,96812.93
2018-08-23T03:47:43.355Z,96813.83
2018-08-23T03:50:13.373Z,96817.27
2018-08-23T03:52:47.535Z,96819.08
2018-08-23T03:55:21.743Z,96814.89
2018-08-23T03:57:56.694Z,96825.19
2018-08-23T04:00:31.623Z,96826.64
2018-08-23T04:03:03.578Z,96831.47
2018-08-23T04:05:33.673Z,96825.56
2018-08-23T04:08:03.729Z,96828.66
2018-08-23T04:10:33.804Z,96820.55
2018-08-23T04:13:03.809Z,96821.36
2018-08-23T04:15:33.928Z,96817.50
2018-08-23T04:18:07.195Z,96822.98
2018-08-23T04:20:38.012Z,96824.78
2018-08-23T04:23:08.698Z,96825.61
2018-08-23T04:25:38.585Z,96822.23
2018-08-23T04:28:08.573Z,96819.42
2018-08-23T04:30:38.650Z,96822.99
2018-08-23T04:33:08.667Z,96820.09
2018-08-23T04:35:39.393Z,96820.09
2018-08-23T04:38:09.379Z,96826.52
2018-08-23T04:40:39.597Z,96821.86
2018-08-23T04:43:09.617Z,96822.33
2018-08-23T04:45:39.712Z,96821.95
2018-08-23T04:48:09.898Z,96823.63
2018-08-23T04:50:40.606Z,96830.47
2018-08-23T04:53:10.672Z,96827.91
2018-08-23T04:55:40.561Z,96824.47
2018-08-23T04:58:10.672Z,96823.53
2018-08-23T05:00:40.735Z,96831.23
2018-08-23T05:03:10.832Z,96836.29
2018-08-23T05:05:40.874Z,96828.52
2018-08-23T05:08:11.040Z,96824.98
2018-08-23T05:10:41.097Z,96824.89
2018-08-23T05:13:11.217Z,96824.84
2018-08-23T05:15:41.351Z,96828.12
2018-08-23T05:18:10.983Z,96828.34
2018-08-23T05:20:41.117Z,96829.54
2018-08-23T05:23:11.199Z,96832.02
2018-08-23T05:25:41.166Z,96822.95
2018-08-23T05:41:12.704Z,96822.42
2018-08-23T05:43:42.704Z,96820.71
2018-08-23T05:46:12.803Z,96823.50
2018-08-23T05:48:42.902Z,96827.62
2018-08-23T05:51:14.260Z,96827.52
2018-08-23T05:53:46.858Z,96831.31
2018-08-23T05:56:17.334Z,96829.44
2018-08-23T05:58:47.602Z,96836.58
2018-08-23T06:01:17.626Z,96829.55
2018-08-23T06:03:47.764Z,96831.95
2018-08-23T06:06:17.859Z,96828.30
2018-08-23T06:08:50.980Z,96826.90
2018-08-23T06:11:21.043Z,96828.06
2018-08-23T06:13:51.199Z,96825.33
2018-08-23T06:16:22.038Z,96820.86
2018-08-23T06:18:52.142Z,96823.07
2018-08-23T06:21:22.361Z,96823.58
2018-08-23T06:24:00.000Z,96820.89
2018-08-23T06:26:43.915Z,96824.19
2018-08-23T06:29:18.845Z,96828.24
2018-08-23T06:31:58.620Z,96820.39
2018-08-23T06:34:30.330Z,96830.52
2018-08-23T06:37:00.495Z,96822.42
2018-08-23T06:39:30.635Z,96830.64
2018-08-23T06:42:01.765Z,96826.95
2018-08-23T06:44:43.654Z,96825.84
2018-08-23T06:47:16.288Z,96826.45
2018-08-23T06:49:47.397Z,96827.17
2018-08-23T06:52:23.814Z,96828.63
2018-08-23T06:54:53.853Z,96825.02
2018-08-23T06:57:23.899Z,96821.35
2018-08-23T06:59:53.957Z,96823.72
2018-08-23T07:02:24.057Z,96812.27
2018-08-23T07:04:54.135Z,96821.72
2018-08-23T07:07:24.175Z,96816.14
2018-08-23T07:09:54.354Z,96818.22
2018-08-23T07:12:24.336Z,96820.68
2018-08-23T07:14:54.407Z,96818.80
2018-08-23T07:17:28.081Z,96823.84
2018-08-23T07:20:02.511Z,96822.14
2018-08-23T07:22:34.862Z,96823.97
2018-08-23T07:25:05.026Z,96819.55
2018-08-23T07:27:35.129Z,96818.55
2018-08-23T07:30:05.248Z,96817.55
2018-08-23T07:32:39.144Z,96818.20
2018-08-23T07:35:10.535Z,96808.66
2018-08-23T07:37:41.770Z,96812.03
2018-08-23T07:40:12.778Z,96808.31
2018-08-23T07:42:43.912Z,96813.98
2018-08-23T07:45:14.132Z,96814.44
2018-08-23T07:47:58.331Z,96814.18
2018-08-23T07:50:28.357Z,96819.34
2018-08-23T07:52:58.457Z,96824.66
2018-08-23T07:55:28.495Z,96827.39
2018-08-23T07:57:58.525Z,96826.74
2018-08-23T08:00:44.097Z,96829.81
2018-08-23T08:03:15.267Z,96823.52
2018-08-23T08:05:46.416Z,96821.84
2018-08-23T08:08:16.498Z,96821.23
2018-08-23T08:10:47.085Z,96819.28
2018-08-23T08:13:17.169Z,96816.78
2018-08-23T08:15:47.171Z,96813.74
2018-08-23T08:18:21.070Z,96815.80
2018-08-23T08:20:57.157Z,96815.92
2018-08-23T08:23:27.340Z,96819.81
2018-08-23T08:25:57.411Z,96817.08
2018-08-23T08:28:27.454Z,96822.00
2018-08-23T08:31:00.569Z,96824.70
2018-08-23T08:33:35.653Z,96827.27
2018-08-23T08:36:06.515Z,96822.74
2018-08-23T08:38:37.105Z,96828.44
2018-08-23T08:41:07.223Z,96823.88
2018-08-23T08:43:37.246Z,96832.69
2018-08-23T08:46:07.360Z,96808.06
2018-08-23T08:48:37.386Z,96829.72
2018-08-23T08:51:31.969Z,96816.16
2018-08-23T08:54:03.333Z,96821.77
2018-08-23T08:56:38.372Z,96822.50
2018-08-23T08:59:08.331Z,96817.12
2018-08-23T09:01:38.399Z,96814.81
2018-08-23T09:04:08.568Z,96821.95
2018-08-23T09:06:45.450Z,96819.88
2018-08-23T09:09:39.611Z,96815.37
2018-08-23T09:12:11.075Z,96818.05
2018-08-23T09:14:42.234Z,96817.59
2018-08-23T09:17:28.038Z,96807.44
2018-08-23T09:20:01.049Z,96809.10
2018-08-23T09:22:36.073Z,96802.34
2018-08-23T09:25:07.959Z,96798.34
2018-08-23T09:27:38.840Z,96797.05
2018-08-23T09:30:14.940Z,96791.32
2018-08-23T09:32:45.013Z,96792.40
2018-08-23T09:35:15.179Z,96788.93
2018-08-23T09:37:45.313Z,96792.80
2018-08-23T09:40:15.441Z,96780.00
2018-08-23T09:42:45.228Z,96786.61
2018-08-23T09:45:17.371Z,96771.61
2018-08-23T09:47:48.476Z,96771.70
2018-08-23T09:50:18.559Z,96775.46
2018-08-23T09:52:49.850Z,96777.98
2018-08-23T09:55:21.082Z,96771.60
2018-08-23T09:57:51.183Z,96766.11
2018-08-23T10:00:30.444Z,96765.31
2018-08-23T10:03:05.558Z,96765.62
2018-08-23T10:05:44.706Z,96757.62
2018-08-23T10:08:19.679Z,96756.02
2018-08-23T10:10:54.605Z,96755.47
2018-08-23T10:13:29.616Z,96752.64
2018-08-23T10:16:04.662Z,96745.73
2018-08-23T10:18:39.596Z,96752.65
2018-08-23T10:21:09.890Z,96745.20
2018-08-23T10:23:40.039Z,96746.14
2018-08-23T10:26:26.889Z,96740.47
2018-08-23T10:28:57.162Z,96742.22
2018-08-23T10:31:27.307Z,96735.98
2018-08-23T10:33:57.397Z,96734.80
2018-08-23T10:36:27.465Z,96728.64
2018-08-23T10:38:57.485Z,96730.13
2018-08-23T10:41:27.542Z,96726.20
2018-08-23T10:43:56.699Z,96731.59
2018-08-23T10:46:26.799Z,96722.23
2018-08-23T10:48:56.882Z,96714.41
2018-08-23T10:51:26.928Z,96715.34
2018-08-23T10:53:56.986Z,96714.41
2018-08-23T10:56:28.300Z,96717.73
2018-08-23T10:58:58.423Z,96716.05
2018-08-23T11:01:28.446Z,96709.88
2018-08-23T11:04:02.462Z,96704.62
2018-08-23T11:06:32.638Z,96704.52
2018-08-23T11:09:07.413Z,96702.61
2018-08-23T11:11:38.295Z,96702.71
2018-08-23T11:14:13.285Z,96695.16
2018-08-23T11:16:48.328Z,96696.92
2018-08-23T11:19:23.404Z,96695.95
2018-08-23T11:21:53.222Z,96687.58
2018-08-23T11:24:23.296Z,96691.24
2018-08-23T11:26:53.372Z,96686.80
2018-08-23T11:29:23.610Z,96684.48
2018-08-23T11:31:53.662Z,96679.98
2018-08-23T11:34:23.746Z,96679.88
2018-08-23T11:36:53.863Z,96680.21
2018-08-23T11:39:23.932Z,96668.63
2018-08-23T11:41:54.183Z,96668.80
2018-08-23T11:44:24.280Z,96665.95
2018-08-23T11:46:54.463Z,96665.88
2018-08-23T11:49:24.520Z,96661.05
2018-08-23T11:51:54.689Z,96655.20
2018-08-23T11:54:24.820Z,96651.59
2018-08-23T11:56:54.880Z,96649.67
2018-08-23T11:59:24.850Z,96644.77
2018-08-23T12:01:55.021Z,96637.77
2018-08-23T12:04:24.972Z,96636.92
2018-08-23T12:06:58.131Z,96633.91
2018-08-23T12:09:33.833Z,96627.27
2018-08-23T12:12:05.019Z,96629.54
2018-08-23T12:14:35.058Z,96618.98
2018-08-23T12:17:04.988Z,96617.10
2018-08-23T12:19:35.043Z,96610.97
2018-08-23T12:22:05.359Z,96616.84
2018-08-23T12:24:35.397Z,96607.00
2018-08-23T12:27:05.593Z,96601.64
2018-08-23T12:29:35.668Z,96603.69
2018-08-23T12:32:05.913Z,96603.45
2018-08-23T12:34:36.899Z,96605.97
2018-08-23T12:37:11.814Z,96606.77
2018-08-23T12:39:47.071Z,96600.94
2018-08-23T12:42:21.901Z,96604.73
2018-08-23T12:44:53.993Z,96598.89
2018-08-23T12:47:23.990Z,96594.81
2018-08-23T12:49:58.009Z,96596.62
2018-08-23T12:52:28.140Z,96588.83
2018-08-23T12:54:58.196Z,96586.16
2018-08-23T12:57:28.659Z,96588.94
2018-08-23T12:59:58.862Z,96583.09
2018-08-23T13:02:29.409Z,96574.61
2018-08-23T13:04:59.489Z,96575.70
2018-08-23T13:07:30.623Z,96571.70
2018-08-23T13:10:00.670Z,96566.55
2018-08-23T13:12:30.765Z,96562.41
2018-08-23T13:15:00.841Z,96569.95
2018-08-23T13:17:31.035Z,96559.45
2018-08-23T13:20:01.160Z,96550.99
2018-08-23T13:22:36.321Z,96547.58
2018-08-23T13:25:07.815Z,96545.80
2018-08-23T13:27:37.907Z,96543.14
2018-08-23T13:30:07.961Z,96549.13
2018-08-23T13:32:38.052Z,96547.81
2018-08-23T13:35:08.422Z,96557.59
2018-08-23T13:37:38.554Z,96543.58
2018-08-23T13:40:12.750Z,96545.25
2018-08-23T13:42:42.923Z,96535.05
2018-08-23T13:45:12.894Z,96538.35
2018-08-23T13:47:43.013Z,96532.52
2018-08-23T13:50:13.090Z,96528.17
2018-08-23T13:52:43.253Z,96520.53
2018-08-23T13:55:13.197Z,96524.34
2018-08-23T13:57:43.225Z,96523.16
2018-08-23T14:00:18.239Z,96522.66
2018-08-23T14:02:48.062Z,96520.03
2018-08-23T14:05:18.124Z,96516.42
2018-08-23T14:07:48.254Z,96513.09
2018-08-23T14:10:18.157Z,96506.47
2018-08-23T14:12:48.320Z,96497.20
2018-08-23T14:15:23.948Z,96500.03
2018-08-23T14:17:54.077Z,96489.80
2018-08-23T14:20:24.255Z,96496.91
2018-08-23T14:22:54.337Z,96489.36
2018-08-23T14:25:24.348Z,96492.16
2018-08-23T14:27:54.468Z,96490.82
2018-08-23T14:30:24.586Z,96487.52
2018-08-23T14:32:54.899Z,96485.97
2018-08-23T14:35:24.938Z,96483.78
2018-08-23T14:37:54.980Z,96477.33
2018-08-23T14:40:25.179Z,96473.22
2018-08-23T14:42:55.245Z,96463.42
2018-08-23T14:45:30.256Z,96461.71
2018-08-23T14:48:05.276Z,96464.44
2018-08-23T14:50:36.084Z,96463.99
2018-08-23T14:53:06.949Z,96479.64
2018-08-23T14:55:41.942Z,96479.50
2018-08-23T14:58:12.902Z,96487.85
2018-08-23T15:00:43.054Z,96492.30
2018-08-23T15:03:13.180Z,96500.06
2018-08-23T15:05:43.213Z,96510.95
2018-08-23T15:08:13.175Z,96516.05
2018-08-23T15:10:43.258Z,96520.30
2018-08-23T15:13:13.374Z,96513.88
2018-08-23T15:15:48.277Z,96513.33
2018-08-23T15:18:20.204Z,96505.77
2018-08-23T15:20:50.975Z,96504.00
2018-08-23T15:23:21.136Z,96498.98
2018-08-23T15:25:51.181Z,96514.70
2018-08-23T15:28:21.087Z,96519.19
2018-08-23T15:30:50.987Z,96537.61
2018-08-23T15:33:20.946Z,96543.06
2018-08-23T15:35:50.855Z,96545.07
2018-08-23T15:38:20.897Z,96548.09
2018-08-23T15:40:50.854Z,96557.08
2018-08-23T15:43:21.202Z,96549.17
2018-08-23T15:45:51.042Z,96543.88
2018-08-23T15:48:21.020Z,96529.27
2018-08-23T15:50:51.039Z,96514.39
2018-08-23T15:53:21.136Z,96514.62
2018-08-23T15:55:51.067Z,96521.19
2018-08-23T15:58:21.015Z,96522.45
2018-08-23T16:00:51.071Z,96522.64
2018-08-23T16:03:21.176Z,96521.65
2018-08-23T16:05:51.166Z,96530.04
2018-08-23T16:08:21.198Z,96532.12
2018-08-23T16:10:51.229Z,96538.46
2018-08-23T16:13:21.275Z,96545.89
2018-08-23T16:15:55.318Z,96544.83
2018-08-23T16:18:30.442Z,96552.22
2018-08-23T16:21:01.569Z,96551.21
2018-08-23T16:23:31.604Z,96545.30
2018-08-23T16:26:01.523Z,96555.36
2018-08-23T16:28:31.567Z,96550.55
2018-08-23T16:31:01.564Z,96548.11
2018-08-23T16:33:31.618Z,96547.87
2018-08-23T16:36:01.721Z,96546.56
2018-08-23T16:38:31.757Z,96548.41
2018-08-23T16:41:01.743Z,96555.30
2018-08-23T16:43:31.809Z,96550.44
2018-08-23T16:46:01.866Z,96551.35
2018-08-23T16:48:31.937Z,96557.18
2018-08-23T16:51:01.940Z,96545.62
2018-08-23T16:53:32.042Z,96548.70
2018-08-23T16:56:02.120Z,96551.14
2018-08-23T16:58:32.341Z,96549.81
2018-08-23T17:01:02.257Z,96545.75
2018-08-23T17:03:32.246Z,96545.41
2018-08-23T17:06:02.332Z,96545.23
2018-08-23T17:08:32.302Z,96548.27
2018-08-23T17:11:02.275Z,96560.03
2018-08-23T17:13:37.439Z,96567.88
2018-08-23T17:16:12.913Z,96579.26
2018-08-23T17:18:43.774Z,96590.72
2018-08-23T17:21:13.746Z,96597.34
2018-08-23T17:23:43.750Z,96601.55
2018-08-23T17:26:13.787Z,96604.56
2018-08-23T17:28:43.893Z,96609.91
2018-08-23T17:31:13.893Z,96605.91
2018-08-23T17:33:43.947Z,96599.03
2018-08-23T17:36:13.974Z,96595.44
2018-08-23T17:38:44.091Z,96607.60
2018-08-23T17:41:14.180Z,96600.19
2018-08-23T17:43:44.147Z,96606.30
2018-08-23T17:46:14.299Z,96613.30
2018-08-23T17:48:44.365Z,96601.26
2018-08-23T17:51:14.451Z,96601.85
2018-08-23T17:53:44.510Z,96596.39
2018-08-23T17:56:14.549Z,96600.81
2018-08-23T17:58:44.721Z,96606.97
2018-08-23T18:01:14.742Z,96616.66
2018-08-23T18:03:44.739Z,96619.94
2018-08-23T18:06:15.058Z,96625.81
2018-08-23T18:08:46.019Z,96633.19
2018-08-23T18:11:16.056Z,96641.36
2018-08-23T18:13:46.101Z,96644.85
2018-08-23T18:16:21.058Z,96650.03
2018-08-23T18:18:51.115Z,96653.55
2018-08-23T18:21:20.813Z,96660.20
2018-08-23T18:23:50.943Z,96657.96
2018-08-23T18:26:20.921Z,96658.16
2018-08-23T18:28:51.017Z,96656.22
2018-08-23T18:31:20.979Z,96656.13
2018-08-23T18:33:51.074Z,96644.62
2018-08-23T18:36:21.013Z,96640.86
2018-08-23T18:38:51.034Z,96648.53
2018-08-23T18:41:21.072Z,96637.45
2018-08-23T18:43:51.134Z,96627.67
2018-08-23T18:46:21.259Z,96632.82
2018-08-23T18:48:51.525Z,96626.28
2018-08-23T18:51:21.650Z,96628.40
2018-08-23T18:53:51.802Z,96627.22
2018-08-23T18:56:21.903Z,96635.28
2018-08-23T18:58:52.043Z,96638.13
2018-08-23T19:01:21.975Z,96640.45
2018-08-23T19:03:52.324Z,96636.84
2018-08-23T19:06:26.337Z,96640.30
2018-08-23T19:08:56.360Z,96645.65
2018-08-23T19:11:26.408Z,96650.55
2018-08-23T19:13:56.405Z,96639.66
2018-08-23T19:16:31.509Z,96644.31
2018-08-23T19:19:01.896Z,96648.43
2018-08-23T19:21:31.817Z,96650.09
2018-08-23T19:24:01.917Z,96644.12
2018-08-23T19:26:31.923Z,96653.80
2018-08-23T19:29:01.862Z,96666.03
2018-08-23T19:31:32.259Z,96672.16
2018-08-23T19:34:02.257Z,96675.23
2018-08-23T19:36:32.335Z,96675.23
2018-08-23T19:39:03.454Z,96671.77
2018-08-23T19:41:33.469Z,96686.39
2018-08-23T19:44:03.509Z,96688.88
2018-08-23T19:46:38.366Z,96696.64
2018-08-23T19:49:13.305Z,96704.70
2018-08-23T19:51:43.338Z,96705.41
2018-08-23T19:54:13.401Z,96709.28
2018-08-23T19:56:43.508Z,96713.03
2018-08-23T19:59:13.534Z,96713.44
2018-08-23T20:01:43.590Z,96714.23
2018-08-23T20:04:15.370Z,96709.86
2018-08-23T20:06:45.576Z,96711.53
2018-08-23T20:09:15.605Z,96719.94
2018-08-23T20:11:45.678Z,96715.92
2018-08-23T20:14:15.704Z,96716.73
2018-08-23T20:16:45.734Z,96718.56
2018-08-23T20:19:15.722Z,96712.98
2018-08-23T20:21:45.877Z,96712.31
2018-08-23T20:24:15.968Z,96714.48
2018-08-23T20:26:46.919Z,96718.83
2018-08-23T20:29:16.956Z,96719.16
2018-08-23T20:31:47.039Z,96709.61
2018-08-23T20:34:17.042Z,96702.78
2018-08-23T20:36:47.093Z,96690.81
2018-08-23T20:39:17.254Z,96679.89
2018-08-23T20:41:48.045Z,96689.42
2018-08-23T20:44:17.916Z,96670.78
2018-08-23T20:46:47.879Z,96676.35
2018-08-23T20:49:17.830Z,96683.68
2018-08-23T20:51:47.698Z,96679.05
2018-08-23T20:54:17.632Z,96672.69
2018-08-23T20:56:47.547Z,96667.71
2018-08-23T20:59:17.522Z,96666.86
2018-08-23T21:01:47.481Z,96664.78
2018-08-23T21:04:17.584Z,96658.05
2018-08-23T21:06:47.591Z,96648.13
2018-08-23T21:09:17.521Z,96646.44
2018-08-23T21:11:47.580Z,96645.55
2018-08-23T21:14:17.702Z,96653.50
2018-08-23T21:16:47.797Z,96655.20
2018-08-23T21:19:17.553Z,96660.45
2018-08-23T21:21:47.550Z,96669.10
2018-08-23T21:24:17.510Z,96666.84
2018-08-23T21:26:47.570Z,96661.42
2018-08-23T21:29:17.567Z,96650.66
2018-08-23T21:31:47.466Z,96648.97
2018-08-23T21:34:17.409Z,96662.59
2018-08-23T21:36:47.443Z,96667.07
2018-08-23T21:39:17.700Z,96669.23
2018-08-23T21:41:47.758Z,96660.21
2018-08-23T21:44:17.812Z,96657.93
2018-08-23T21:46:47.588Z,96654.36
2018-08-23T21:49:17.742Z,96646.63
2018-08-23T21:51:47.646Z,96651.78
2018-08-23T21:54:17.749Z,96646.70
2018-08-23T21:56:47.775Z,96642.16
2018-08-23T21:59:17.875Z,96648.17
2018-08-23T22:01:47.935Z,96648.52
2018-08-23T22:04:17.934Z,96645.95
2018-08-23T22:06:47.950Z,96642.34
2018-08-23T22:09:18.043Z,96648.29
2018-08-23T22:11:48.048Z,96634.78
2018-08-23T22:14:18.179Z,96640.73
2018-08-23T22:16:48.197Z,96631.27
2018-08-23T22:19:18.312Z,96623.09
2018-08-23T22:21:48.285Z,96617.93
2018-08-23T22:24:18.376Z,96614.56
2018-08-23T22:26:48.444Z,96620.59
2018-08-23T22:29:18.532Z,96611.56
2018-08-23T22:31:48.508Z,96603.45
2018-08-23T22:34:19.325Z,96600.99
2018-08-23T22:36:49.394Z,96597.62
2018-08-23T22:39:19.461Z,96592.97
2018-08-23T22:41:49.449Z,96596.05
2018-08-23T22:44:19.568Z,96596.16
2018-08-23T22:46:49.500Z,96601.41
2018-08-23T22:49:19.625Z,96600.65
2018-08-23T22:51:49.523Z,96594.76
2018-08-23T22:54:19.596Z,96587.55
2018-08-23T22:56:49.490Z,96584.53
2018-08-23T22:59:19.413Z,96579.81
2018-08-23T23:01:49.398Z,96569.13
2018-08-23T23:04:24.320Z,96570.80
2018-08-23T23:06:54.378Z,96571.70
2018-08-23T23:09:24.396Z,96571.41
2018-08-23T23:11:54.475Z,96566.00
2018-08-23T23:14:24.530Z,96563.06
2018-08-23T23:16:55.258Z,96563.13
2018-08-23T23:19:26.262Z,96568.66
2018-08-23T23:21:56.246Z,96562.33
2018-08-23T23:24:31.343Z,96565.03
2018-08-23T23:27:01.283Z,96574.13
2018-08-23T23:29:31.337Z,96570.82
2018-08-23T23:32:01.365Z,96570.94
2018-08-23T23:34:31.378Z,96567.62
2018-08-23T23:37:01.251Z,96562.59
2018-08-23T23:39:31.312Z,96561.00
2018-08-23T23:42:01.348Z,96552.92
2018-08-23T23:44:31.481Z,96554.27
2018-08-23T23:47:01.495Z,96556.05
2018-08-23T23:49:31.635Z,96556.10
2018-08-23T23:52:01.676Z,96557.16
2018-08-23T23:54:31.834Z,96557.72
2018-08-23T23:57:01.892Z,96551.16
2018-08-23T23:59:32.001Z,96552.69
